createdAt,value
2023-03-03T00:01:03.632Z,31.08
2023-03-03T00:03:30.695Z,29.67
2023-03-03T00:05:58.188Z,29.33
2023-03-03T00:08:25.459Z,29.38
2023-03-03T00:10:52.877Z,28.27
2023-03-03T00:13:23.986Z,30.05
2023-03-03T00:15:52.289Z,28.45
2023-03-03T00:18:33.804Z,28.65
2023-03-03T00:21:02.769Z,26.80
2023-03-03T00:23:39.375Z,28.27
2023-03-03T00:26:38.593Z,26.83
2023-03-03T00:29:29.174Z,26.80
2023-03-03T00:32:16.526Z,27.27
2023-03-03T00:34:44.902Z,26.02
2023-03-03T00:37:35.478Z,28.50
2023-03-03T00:40:24.107Z,28.08
2023-03-03T00:42:58.333Z,26.80
2023-03-03T00:45:48.917Z,27.88
2023-03-03T00:48:28.261Z,28.42
2023-03-03T00:51:01.635Z,29.10
2023-03-03T00:53:30.868Z,28.08
2023-03-03T00:55:58.119Z,28.95
2023-03-03T00:58:25.396Z,28.33
2023-03-03T01:00:54.658Z,30.02
2023-03-03T01:03:25.000Z,30.58
2023-03-03T01:05:53.563Z,31.33
2023-03-03T01:08:22.165Z,29.63
2023-03-03T01:10:52.256Z,30.08
2023-03-03T01:13:23.572Z,29.73
2023-03-03T01:15:51.111Z,30.58
2023-03-03T01:18:18.081Z,30.02
2023-03-03T01:20:44.931Z,28.33
2023-03-03T01:23:11.899Z,28.60
2023-03-03T01:25:39.391Z,29.52
2023-03-03T01:28:06.218Z,29.90
2023-03-03T01:30:33.150Z,27.98
2023-03-03T01:33:00.154Z,26.88
2023-03-03T01:35:27.659Z,27.55
2023-03-03T01:37:54.433Z,29.52
2023-03-03T01:40:26.650Z,28.60
2023-03-03T01:42:53.919Z,23.77
2023-03-03T01:45:27.309Z,29.23
2023-03-03T01:48:23.373Z,29.85
2023-03-03T01:51:06.621Z,29.08
2023-03-03T01:53:43.460Z,29.58
2023-03-03T01:56:11.122Z,29.10
2023-03-03T01:58:43.826Z,30.08
2023-03-03T02:01:19.483Z,30.30
2023-03-03T02:03:46.722Z,30.13
2023-03-03T02:06:22.872Z,30.92
2023-03-03T02:09:06.543Z,31.65
2023-03-03T02:11:36.957Z,31.55
2023-03-03T02:14:04.097Z,28.48
2023-03-03T02:16:31.110Z,44.92
2023-03-03T02:18:58.033Z,41.67
2023-03-03T02:21:28.349Z,36.67
2023-03-03T02:24:18.504Z,43.95
2023-03-03T02:26:46.347Z,35.50
2023-03-03T02:29:13.122Z,50.45
2023-03-03T02:31:40.310Z,35.70
2023-03-03T02:34:07.467Z,32.65
2023-03-03T02:36:38.587Z,40.72
2023-03-03T02:39:14.604Z,32.42
2023-03-03T02:42:08.257Z,34.80
2023-03-03T02:44:35.714Z,30.70
2023-03-03T02:47:02.475Z,32.60
2023-03-03T02:49:32.551Z,30.65
2023-03-03T02:52:02.031Z,31.77
2023-03-03T02:54:33.574Z,31.05
2023-03-03T02:57:01.008Z,29.90
2023-03-03T02:59:28.658Z,30.15
2023-03-03T03:01:56.001Z,29.95
2023-03-03T03:04:26.964Z,31.35
2023-03-03T03:06:55.001Z,28.05
2023-03-03T03:09:24.830Z,28.73
2023-03-03T03:11:52.131Z,29.05
2023-03-03T03:14:18.901Z,29.40
2023-03-03T03:16:45.929Z,28.30
2023-03-03T03:19:12.967Z,27.42
2023-03-03T03:21:39.780Z,28.10
2023-03-03T03:24:06.929Z,27.77
2023-03-03T03:26:33.725Z,28.75
2023-03-03T03:29:00.595Z,26.58
2023-03-03T03:31:27.623Z,27.42
2023-03-03T03:33:54.440Z,27.42
2023-03-03T03:36:21.339Z,26.67
2023-03-03T03:38:48.136Z,26.90
2023-03-03T03:41:14.995Z,28.00
2023-03-03T03:43:41.794Z,27.58
2023-03-03T03:46:09.018Z,26.48
2023-03-03T03:48:36.104Z,28.23
2023-03-03T03:51:03.235Z,28.90
2023-03-03T03:53:30.329Z,30.40
2023-03-03T03:55:57.422Z,29.73
2023-03-03T03:58:24.268Z,28.83
2023-03-03T04:00:51.107Z,29.95
2023-03-03T04:03:18.017Z,30.92
2023-03-03T04:05:44.899Z,29.05
2023-03-03T04:08:12.281Z,30.17
2023-03-03T04:10:39.250Z,30.42
2023-03-03T04:13:06.358Z,29.90
2023-03-03T04:15:33.198Z,26.52
2023-03-03T04:18:00.136Z,28.52
2023-03-03T04:20:27.000Z,28.98
2023-03-03T04:22:53.797Z,29.77
2023-03-03T04:25:20.653Z,29.58
2023-03-03T04:27:47.548Z,28.15
2023-03-03T04:30:16.144Z,30.02
2023-03-03T04:32:42.987Z,29.73
2023-03-03T04:35:10.854Z,29.83
2023-03-03T04:37:38.869Z,29.83
2023-03-03T04:40:07.751Z,29.70
2023-03-03T04:42:35.297Z,30.30
2023-03-03T04:45:02.514Z,29.83
2023-03-03T04:47:29.325Z,31.23
2023-03-03T04:49:56.083Z,30.40
2023-03-03T04:52:22.897Z,30.48
2023-03-03T04:54:49.676Z,29.33
2023-03-03T04:57:16.464Z,30.33
2023-03-03T04:59:43.398Z,30.77
2023-03-03T05:02:10.249Z,31.63
2023-03-03T05:04:39.959Z,31.35
2023-03-03T05:07:07.347Z,30.35
2023-03-03T05:09:34.260Z,31.95
2023-03-03T05:12:01.284Z,31.90
2023-03-03T05:14:28.240Z,31.33
2023-03-03T05:16:55.299Z,30.95
2023-03-03T05:19:22.084Z,32.22
2023-03-03T05:21:48.899Z,31.40
2023-03-03T05:24:15.854Z,30.42
2023-03-03T05:26:42.764Z,31.08
2023-03-03T05:29:10.034Z,30.92
2023-03-03T05:31:37.035Z,32.30
2023-03-03T05:34:03.970Z,29.85
2023-03-03T05:36:30.815Z,30.73
2023-03-03T05:38:57.640Z,30.00
2023-03-03T05:41:24.576Z,28.92
2023-03-03T05:43:51.750Z,30.15
2023-03-03T05:46:19.040Z,30.05
2023-03-03T05:48:46.177Z,30.08
2023-03-03T05:51:13.118Z,29.13
2023-03-03T05:53:40.160Z,29.90
2023-03-03T05:56:07.558Z,29.83
2023-03-03T05:58:34.337Z,31.92
2023-03-03T06:01:01.887Z,34.10
2023-03-03T06:03:29.006Z,36.83
2023-03-03T06:05:55.898Z,38.78
2023-03-03T06:08:22.921Z,42.42
2023-03-03T06:10:49.720Z,40.63
2023-03-03T06:13:16.778Z,42.65
2023-03-03T06:15:44.075Z,39.85
2023-03-03T06:18:10.907Z,42.20
2023-03-03T06:20:38.657Z,33.80
2023-03-03T06:23:06.287Z,33.72
2023-03-03T06:25:36.677Z,32.50
2023-03-03T06:28:03.963Z,32.88
2023-03-03T06:30:30.895Z,30.52
2023-03-03T06:32:57.926Z,34.63
2023-03-03T06:35:24.932Z,33.92
2023-03-03T06:37:51.920Z,32.85
2023-03-03T06:40:18.879Z,29.48
2023-03-03T06:42:46.000Z,31.58
2023-03-03T06:45:13.316Z,31.55
2023-03-03T06:47:40.616Z,30.92
2023-03-03T06:50:10.197Z,31.10
2023-03-03T06:52:37.022Z,30.58
2023-03-03T06:55:21.820Z,33.03
2023-03-03T06:57:48.757Z,32.10
2023-03-03T07:00:24.594Z,31.35
2023-03-03T07:03:06.077Z,30.85
2023-03-03T07:05:34.359Z,31.42
2023-03-03T07:08:01.871Z,31.30
2023-03-03T07:10:30.946Z,30.17
2023-03-03T07:13:21.981Z,31.17
2023-03-03T07:15:51.827Z,30.02
2023-03-03T07:18:57.986Z,30.00
2023-03-03T07:21:36.579Z,29.65
2023-03-03T07:24:20.133Z,27.30
2023-03-03T07:26:46.943Z,27.75
2023-03-03T07:29:24.955Z,28.52
2023-03-03T07:31:53.612Z,28.85
2023-03-03T07:34:40.051Z,29.85
2023-03-03T07:37:36.486Z,30.92
2023-03-03T07:40:38.133Z,31.55
2023-03-03T07:44:17.850Z,29.80
2023-03-03T07:46:48.239Z,29.23
2023-03-03T07:49:37.000Z,30.50
2023-03-03T07:52:32.007Z,27.92
2023-03-03T07:55:03.825Z,29.17
2023-03-03T07:57:39.766Z,26.90
2023-03-03T08:00:19.463Z,27.15
2023-03-03T08:03:00.342Z,28.33
2023-03-03T08:05:45.218Z,27.95
2023-03-03T08:08:32.442Z,28.23
2023-03-03T08:11:02.319Z,29.13
2023-03-03T08:13:36.557Z,26.83
2023-03-03T08:16:39.212Z,27.50
2023-03-03T08:19:07.133Z,27.33
2023-03-03T08:21:36.983Z,25.70
2023-03-03T08:24:05.974Z,25.95
2023-03-03T08:26:32.922Z,23.48
2023-03-03T08:29:01.783Z,23.00
2023-03-03T08:31:40.820Z,23.20
2023-03-03T08:34:10.789Z,29.48
2023-03-03T08:36:37.666Z,24.15
2023-03-03T08:39:10.318Z,30.20
2023-03-03T08:41:39.197Z,21.25
2023-03-03T08:44:06.485Z,21.60
2023-03-03T08:46:34.230Z,21.55
2023-03-03T08:49:01.146Z,22.38
2023-03-03T08:51:30.121Z,21.58
2023-03-03T08:53:57.543Z,20.05
2023-03-03T08:56:25.644Z,21.58
2023-03-03T08:59:02.198Z,21.02
2023-03-03T09:01:31.441Z,21.73
2023-03-03T09:03:58.492Z,20.95
2023-03-03T09:06:25.499Z,21.17
2023-03-03T09:08:54.456Z,21.23
2023-03-03T09:11:28.453Z,20.95
2023-03-03T09:14:29.834Z,21.77
2023-03-03T09:16:57.635Z,21.30
2023-03-03T09:19:37.259Z,22.50
2023-03-03T09:22:26.404Z,21.23
2023-03-03T09:25:00.256Z,21.00
2023-03-03T09:27:35.618Z,21.40
2023-03-03T09:30:34.894Z,20.25
2023-03-03T09:33:17.469Z,19.17
2023-03-03T09:35:45.627Z,23.27
2023-03-03T09:38:31.901Z,21.23
2023-03-03T09:41:38.038Z,22.83
2023-03-03T09:44:19.314Z,22.70
2023-03-03T09:47:36.932Z,22.50
2023-03-03T09:50:34.000Z,22.45
2023-03-03T09:53:15.704Z,23.23
2023-03-03T09:56:08.564Z,22.73
2023-03-03T09:59:21.323Z,23.52
2023-03-03T10:02:18.745Z,23.83
2023-03-03T10:05:27.593Z,24.80
2023-03-03T10:08:37.885Z,23.90
2023-03-03T10:11:30.095Z,22.30
2023-03-03T10:14:23.850Z,24.60
2023-03-03T10:17:19.315Z,23.17
2023-03-03T10:20:08.840Z,23.63
2023-03-03T10:22:57.321Z,24.15
2023-03-03T10:25:42.950Z,23.42
2023-03-03T10:28:54.569Z,23.08
2023-03-03T10:32:07.428Z,24.13
2023-03-03T10:35:00.385Z,23.13
2023-03-03T10:38:05.706Z,19.60
2023-03-03T10:41:17.810Z,22.27
2023-03-03T10:44:32.486Z,22.13
2023-03-03T10:47:38.982Z,23.85
2023-03-03T10:50:51.662Z,23.73
2023-03-03T10:53:34.370Z,22.95
2023-03-03T10:56:26.061Z,21.25
2023-03-03T10:59:27.969Z,23.70
2023-03-03T11:02:06.884Z,25.00
2023-03-03T11:05:03.235Z,24.17
2023-03-03T11:07:56.087Z,23.02
2023-03-03T11:10:41.046Z,23.88
2023-03-03T11:13:53.973Z,23.33
2023-03-03T11:16:55.431Z,25.30
2023-03-03T11:19:47.298Z,24.95
2023-03-03T11:22:34.324Z,25.30
2023-03-03T11:25:20.408Z,24.08
2023-03-03T11:28:14.601Z,23.85
2023-03-03T11:31:06.771Z,25.83
2023-03-03T11:33:46.707Z,24.70
2023-03-03T11:36:18.693Z,25.40
2023-03-03T11:38:58.111Z,24.02
2023-03-03T11:41:49.380Z,26.40
2023-03-03T11:44:30.148Z,25.73
2023-03-03T11:47:05.442Z,24.95
2023-03-03T11:49:41.047Z,25.25
2023-03-03T11:52:42.197Z,25.85
2023-03-03T11:55:23.618Z,26.30
2023-03-03T11:58:31.057Z,26.58
2023-03-03T12:01:39.957Z,26.75
2023-03-03T12:04:23.361Z,26.50
2023-03-03T12:07:24.335Z,27.35
2023-03-03T12:10:21.637Z,25.63
2023-03-03T12:13:03.125Z,26.17
2023-03-03T12:15:39.861Z,26.00
2023-03-03T12:18:40.418Z,26.58
2023-03-03T12:22:14.251Z,25.85
2023-03-03T12:24:59.132Z,26.15
2023-03-03T12:27:58.837Z,25.58
2023-03-03T12:31:09.021Z,24.20
2023-03-03T12:33:58.043Z,25.70
2023-03-03T12:37:12.792Z,25.83
2023-03-03T12:39:59.132Z,26.17
2023-03-03T12:42:42.308Z,27.15
2023-03-03T12:45:37.025Z,25.55
2023-03-03T12:48:16.574Z,25.55
2023-03-03T12:50:56.087Z,24.55
2023-03-03T12:53:40.958Z,22.90
2023-03-03T12:56:14.214Z,25.65
2023-03-03T12:59:04.677Z,27.02
2023-03-03T13:02:25.782Z,25.73
2023-03-03T13:05:40.713Z,25.77
2023-03-03T13:08:47.146Z,25.20
2023-03-03T13:11:33.568Z,25.77
2023-03-03T13:14:32.627Z,24.88
2023-03-03T13:17:19.658Z,24.67
2023-03-03T13:20:00.425Z,24.42
2023-03-03T13:22:38.782Z,27.42
2023-03-03T13:25:20.116Z,26.60
2023-03-03T13:27:51.669Z,25.70
2023-03-03T13:30:31.809Z,25.50
2023-03-03T13:33:28.791Z,23.75
2023-03-03T13:36:02.376Z,23.83
2023-03-03T13:38:42.088Z,25.30
2023-03-03T13:41:31.939Z,25.42
2023-03-03T13:44:42.340Z,25.67
2023-03-03T13:47:42.557Z,23.42
2023-03-03T13:50:29.630Z,22.10
2023-03-03T13:53:18.270Z,23.02
2023-03-03T13:56:13.155Z,21.92
2023-03-03T13:59:02.199Z,22.77
2023-03-03T14:01:51.091Z,22.90
2023-03-03T14:04:48.592Z,26.42
2023-03-03T14:07:29.883Z,26.25
2023-03-03T14:10:02.864Z,25.25
2023-03-03T14:13:08.948Z,26.42
2023-03-03T14:16:19.277Z,24.05
2023-03-03T14:18:57.555Z,23.13
2023-03-03T14:21:39.030Z,24.20
2023-03-03T14:24:25.158Z,22.67
2023-03-03T14:27:00.624Z,22.83
2023-03-03T14:29:27.416Z,20.17
2023-03-03T14:32:01.558Z,19.52
2023-03-03T14:34:42.025Z,23.70
2023-03-03T14:37:24.909Z,23.38
2023-03-03T14:40:21.909Z,23.42
2023-03-03T14:42:51.889Z,22.75
2023-03-03T14:45:36.557Z,21.25
2023-03-03T14:48:18.615Z,20.88
2023-03-03T14:51:15.291Z,21.15
2023-03-03T14:53:48.152Z,21.70
2023-03-03T14:56:31.057Z,21.02
2023-03-03T14:59:20.887Z,20.85
2023-03-03T15:01:48.236Z,22.00
2023-03-03T15:04:15.180Z,22.60
2023-03-03T15:06:49.695Z,23.50
2023-03-03T15:09:43.388Z,22.25
2023-03-03T15:12:38.544Z,22.85
2023-03-03T15:15:05.581Z,21.27
2023-03-03T15:18:01.189Z,20.63
2023-03-03T15:21:16.468Z,21.70
2023-03-03T15:24:07.453Z,21.08
2023-03-03T15:27:13.218Z,22.42
2023-03-03T15:29:58.149Z,20.75
2023-03-03T15:32:55.322Z,23.00
2023-03-03T15:35:28.106Z,23.23
2023-03-03T15:38:18.698Z,22.48
2023-03-03T15:40:50.548Z,22.40
2023-03-03T15:43:50.048Z,22.13
2023-03-03T15:46:53.119Z,23.85
2023-03-03T15:50:06.625Z,22.08
2023-03-03T15:53:14.511Z,20.30
2023-03-03T15:56:28.799Z,19.27
2023-03-03T15:59:20.889Z,19.13
2023-03-03T16:02:12.809Z,19.42
2023-03-03T16:04:51.432Z,28.08
2023-03-03T16:07:45.632Z,21.67
2023-03-03T16:11:03.282Z,24.98
2023-03-03T16:14:18.837Z,18.50
2023-03-03T16:17:48.952Z,33.13
2023-03-03T16:20:34.093Z,22.75
2023-03-03T16:23:27.982Z,21.13
2023-03-03T16:26:36.920Z,31.65
2023-03-03T16:29:28.361Z,24.90
2023-03-03T16:32:22.818Z,20.08
2023-03-03T16:35:25.959Z,19.40
2023-03-03T16:38:03.352Z,19.38
2023-03-03T16:40:52.926Z,22.38
2023-03-03T16:43:33.107Z,20.05
2023-03-03T16:46:34.702Z,19.15
2023-03-03T16:49:33.625Z,19.35
2023-03-03T16:52:12.463Z,17.95
2023-03-03T16:55:05.734Z,17.73
2023-03-03T16:58:03.834Z,16.45
2023-03-03T17:00:40.520Z,15.25
2023-03-03T17:04:24.367Z,16.00
2023-03-03T17:07:08.716Z,15.33
2023-03-03T17:10:04.585Z,14.57
2023-03-03T17:12:43.805Z,14.43
2023-03-03T17:15:35.765Z,14.52
2023-03-03T17:18:21.109Z,15.38
2023-03-03T17:20:49.711Z,14.57
2023-03-03T17:23:52.002Z,20.23
2023-03-03T17:26:32.649Z,19.23
2023-03-03T17:29:22.451Z,21.65
2023-03-03T17:32:08.482Z,22.15
2023-03-03T17:35:02.948Z,25.27
2023-03-03T17:37:48.525Z,20.67
2023-03-03T17:40:45.103Z,18.10
2023-03-03T17:43:19.990Z,17.67
2023-03-03T17:45:51.790Z,20.95
2023-03-03T17:48:39.776Z,18.83
2023-03-03T17:51:39.186Z,19.92
2023-03-03T17:54:23.620Z,18.63
2023-03-03T17:57:24.859Z,17.90
2023-03-03T18:00:14.415Z,15.40
2023-03-03T18:03:23.726Z,15.32
2023-03-03T18:06:24.854Z,18.02
2023-03-03T18:09:36.138Z,19.85
2023-03-03T18:12:18.811Z,22.08
2023-03-03T18:15:38.961Z,16.00
2023-03-03T18:18:21.406Z,19.40
2023-03-03T18:21:00.444Z,20.70
2023-03-03T18:23:46.636Z,21.08
2023-03-03T18:26:41.240Z,20.88
2023-03-03T18:29:17.373Z,22.75
2023-03-03T18:31:52.555Z,25.13
2023-03-03T18:34:37.263Z,21.25
2023-03-03T18:37:32.154Z,19.20
2023-03-03T18:40:02.064Z,41.05
2023-03-03T18:42:42.288Z,31.30
2023-03-03T18:45:18.120Z,29.58
2023-03-03T18:48:14.853Z,28.25
2023-03-03T18:50:50.489Z,34.28
2023-03-03T18:53:35.691Z,29.55
2023-03-03T18:56:10.222Z,25.65
2023-03-03T18:58:42.815Z,21.67
2023-03-03T19:01:31.583Z,20.42
2023-03-03T19:04:20.223Z,20.83
2023-03-03T19:06:51.813Z,20.48
2023-03-03T19:09:45.122Z,19.80
2023-03-03T19:12:16.157Z,20.67
2023-03-03T19:14:49.938Z,20.60
2023-03-03T19:17:23.441Z,22.40
2023-03-03T19:20:15.867Z,24.60
2023-03-03T19:23:03.256Z,33.00
2023-03-03T19:25:32.608Z,36.10
2023-03-03T19:28:14.627Z,29.80
2023-03-03T19:30:56.558Z,25.80
2023-03-03T19:34:01.428Z,24.70
2023-03-03T19:36:52.805Z,24.27
2023-03-03T19:39:34.861Z,23.35
2023-03-03T19:42:25.129Z,16.90
2023-03-03T19:45:39.918Z,20.30
2023-03-03T19:48:33.284Z,21.98
2023-03-03T19:51:29.788Z,20.92
2023-03-03T19:54:32.344Z,23.80
2023-03-03T19:57:04.700Z,24.40
2023-03-03T19:59:55.959Z,18.23
2023-03-03T20:03:02.918Z,26.42
2023-03-03T20:05:46.394Z,30.95
2023-03-03T20:08:28.351Z,33.67
2023-03-03T20:11:19.754Z,35.97
2023-03-03T20:14:22.422Z,41.67
2023-03-03T20:16:56.629Z,35.45
2023-03-03T20:19:51.862Z,36.33
2023-03-03T20:22:44.252Z,35.78
2023-03-03T20:25:26.057Z,32.53
2023-03-03T20:28:37.346Z,28.60
2023-03-03T20:31:42.813Z,27.02
2023-03-03T20:35:00.150Z,27.52
2023-03-03T20:38:03.328Z,26.38
2023-03-03T20:40:45.278Z,25.48
2023-03-03T20:43:31.257Z,27.25
2023-03-03T20:46:23.663Z,27.75
2023-03-03T20:49:07.034Z,28.05
2023-03-03T20:51:56.282Z,27.38
2023-03-03T20:54:38.267Z,25.48
2023-03-03T20:57:12.733Z,24.77
2023-03-03T21:00:07.645Z,25.00
2023-03-03T21:03:35.222Z,24.10
2023-03-03T21:06:17.234Z,27.80
2023-03-03T21:08:56.292Z,28.38
2023-03-03T21:11:33.186Z,29.30
2023-03-03T21:14:18.166Z,25.23
2023-03-03T21:16:46.152Z,30.88
2023-03-03T21:19:31.962Z,30.58
2023-03-03T21:22:02.589Z,28.02
2023-03-03T21:24:53.849Z,24.40
2023-03-03T21:27:30.677Z,26.27
2023-03-03T21:30:08.988Z,24.13
2023-03-03T21:32:48.667Z,26.95
2023-03-03T21:35:23.539Z,25.08
2023-03-03T21:37:57.434Z,25.27
2023-03-03T21:40:28.254Z,24.25
2023-03-03T21:43:00.499Z,22.10
2023-03-03T21:45:30.209Z,18.52
2023-03-03T21:48:02.117Z,24.85
2023-03-03T21:50:32.987Z,24.25
2023-03-03T21:53:01.780Z,23.27
2023-03-03T21:55:28.861Z,24.13
2023-03-03T21:57:55.784Z,24.45
2023-03-03T22:00:23.000Z,22.90
2023-03-03T22:02:50.636Z,25.30
2023-03-03T22:05:17.518Z,23.83
2023-03-03T22:07:45.479Z,23.65
2023-03-03T22:10:13.836Z,24.55
2023-03-03T22:12:41.081Z,23.50
2023-03-03T22:15:09.407Z,25.73
2023-03-03T22:17:37.010Z,29.48
2023-03-03T22:20:05.025Z,26.92
2023-03-03T22:22:31.969Z,30.25
2023-03-03T22:24:58.845Z,28.30
2023-03-03T22:27:25.616Z,25.35
2023-03-03T22:29:52.407Z,23.63
2023-03-03T22:32:19.231Z,23.92
2023-03-03T22:34:46.546Z,23.70
2023-03-03T22:37:13.509Z,23.58
2023-03-03T22:39:40.406Z,24.42
2023-03-03T22:42:07.215Z,22.88
2023-03-03T22:44:35.555Z,23.50
2023-03-03T22:47:02.539Z,23.63
2023-03-03T22:49:29.736Z,26.80
2023-03-03T22:51:58.740Z,26.83
2023-03-03T22:54:26.965Z,24.60
2023-03-03T22:56:54.487Z,24.63
2023-03-03T22:59:21.371Z,24.13
2023-03-03T23:01:49.080Z,23.77
2023-03-03T23:04:16.241Z,23.83
2023-03-03T23:06:45.865Z,24.13
2023-03-03T23:09:13.129Z,24.60
2023-03-03T23:11:40.005Z,24.10
2023-03-03T23:14:07.280Z,23.20
2023-03-03T23:16:34.570Z,26.83
2023-03-03T23:19:01.975Z,25.98
2023-03-03T23:21:29.057Z,25.65
2023-03-03T23:23:56.590Z,24.98
2023-03-03T23:26:23.936Z,26.17
2023-03-03T23:28:51.578Z,25.38
2023-03-03T23:31:18.802Z,24.00
2023-03-03T23:33:45.621Z,23.67
2023-03-03T23:36:12.523Z,22.98
2023-03-03T23:38:42.629Z,23.55
2023-03-03T23:41:10.164Z,24.38
2023-03-03T23:43:38.077Z,25.25
2023-03-03T23:46:05.305Z,26.17
2023-03-03T23:48:32.237Z,26.23
2023-03-03T23:51:02.045Z,25.52
2023-03-03T23:53:28.934Z,24.70
2023-03-03T23:55:56.359Z,25.17
2023-03-03T23:58:24.120Z,24.70
